sensor_id;sensor_type;location;lat;lon;timestamp;P1;durP1;ratioP1;P2;durP2;ratioP2
18544;SDS011;9402;51.460;7.276;2023-04-25T00:01:54;19.42;;;6.40;;
18544;SDS011;9402;51.460;7.276;2023-04-25T00:03:59;20.38;;;6.80;;
18544;SDS011;9402;51.460;7.276;2023-04-25T00:06:01;25.92;;;7.25;;
18544;SDS011;9402;51.460;7.276;2023-04-25T00:08:04;33.08;;;7.32;;
18544;SDS011;9402;51.460;7.276;2023-04-25T00:10:07;22.88;;;7.18;;
18544;SDS011;9402;51.460;7.276;2023-04-25T00:12:11;20.45;;;6.53;;
18544;SDS011;9402;51.460;7.276;2023-04-25T00:14:13;24.40;;;7.50;;
18544;SDS011;9402;51.460;7.276;2023-04-25T00:16:16;22.02;;;6.72;;
18544;SDS011;9402;51.460;7.276;2023-04-25T00:18:19;22.55;;;7.40;;
18544;SDS011;9402;51.460;7.276;2023-04-25T00:20:23;22.05;;;6.20;;
18544;SDS011;9402;51.460;7.276;2023-04-25T00:22:25;19.13;;;6.60;;
18544;SDS011;9402;51.460;7.276;2023-04-25T00:24:27;26.75;;;7.13;;
18544;SDS011;9402;51.460;7.276;2023-04-25T00:26:30;19.67;;;6.13;;
18544;SDS011;9402;51.460;7.276;2023-04-25T00:28:32;23.93;;;7.07;;
18544;SDS011;9402;51.460;7.276;2023-04-25T00:30:34;20.85;;;7.40;;
18544;SDS011;9402;51.460;7.276;2023-04-25T00:32:37;16.85;;;6.45;;
18544;SDS011;9402;51.460;7.276;2023-04-25T00:34:39;19.67;;;6.50;;
18544;SDS011;9402;51.460;7.276;2023-04-25T00:36:43;21.80;;;7.63;;
18544;SDS011;9402;51.460;7.276;2023-04-25T00:38:45;22.92;;;7.03;;
18544;SDS011;9402;51.460;7.276;2023-04-25T00:40:48;21.40;;;7.13;;
18544;SDS011;9402;51.460;7.276;2023-04-25T00:42:50;19.38;;;7.10;;
18544;SDS011;9402;51.460;7.276;2023-04-25T00:44:53;21.95;;;6.78;;
18544;SDS011;9402;51.460;7.276;2023-04-25T00:46:56;21.33;;;7.35;;
18544;SDS011;9402;51.460;7.276;2023-04-25T00:48:59;19.67;;;7.35;;
18544;SDS011;9402;51.460;7.276;2023-04-25T00:51:01;19.15;;;7.10;;
18544;SDS011;9402;51.460;7.276;2023-04-25T00:53:05;21.60;;;6.53;;
18544;SDS011;9402;51.460;7.276;2023-04-25T00:55:10;30.75;;;7.65;;
18544;SDS011;9402;51.460;7.276;2023-04-25T00:57:12;32.38;;;8.07;;
18544;SDS011;9402;51.460;7.276;2023-04-25T00:59:15;21.40;;;7.25;;
18544;SDS011;9402;51.460;7.276;2023-04-25T01:01:17;32.13;;;7.97;;
18544;SDS011;9402;51.460;7.276;2023-04-25T01:03:20;22.90;;;7.75;;
18544;SDS011;9402;51.460;7.276;2023-04-25T01:05:23;22.40;;;7.18;;
18544;SDS011;9402;51.460;7.276;2023-04-25T01:07:25;27.48;;;8.10;;
18544;SDS011;9402;51.460;7.276;2023-04-25T01:09:29;25.13;;;8.40;;
18544;SDS011;9402;51.460;7.276;2023-04-25T01:11:32;21.75;;;7.82;;
18544;SDS011;9402;51.460;7.276;2023-04-25T01:13:34;21.13;;;7.68;;
18544;SDS011;9402;51.460;7.276;2023-04-25T01:15:37;19.70;;;8.60;;
18544;SDS011;9402;51.460;7.276;2023-04-25T01:17:39;20.17;;;8.20;;
18544;SDS011;9402;51.460;7.276;2023-04-25T01:19:44;22.17;;;8.60;;
18544;SDS011;9402;51.460;7.276;2023-04-25T01:21:49;17.80;;;8.52;;
18544;SDS011;9402;51.460;7.276;2023-04-25T01:23:52;22.17;;;8.48;;
18544;SDS011;9402;51.460;7.276;2023-04-25T01:25:55;21.23;;;8.98;;
18544;SDS011;9402;51.460;7.276;2023-04-25T01:27:57;24.25;;;9.00;;
18544;SDS011;9402;51.460;7.276;2023-04-25T01:30:00;20.55;;;9.05;;
18544;SDS011;9402;51.460;7.276;2023-04-25T01:32:03;22.42;;;11.02;;
18544;SDS011;9402;51.460;7.276;2023-04-25T01:34:06;24.48;;;9.43;;
18544;SDS011;9402;51.460;7.276;2023-04-25T01:36:09;21.05;;;9.60;;
18544;SDS011;9402;51.460;7.276;2023-04-25T01:38:13;31.88;;;9.70;;
18544;SDS011;9402;51.460;7.276;2023-04-25T01:40:15;19.85;;;9.60;;
18544;SDS011;9402;51.460;7.276;2023-04-25T01:42:18;31.58;;;10.00;;
18544;SDS011;9402;51.460;7.276;2023-04-25T01:44:21;27.75;;;9.63;;
18544;SDS011;9402;51.460;7.276;2023-04-25T01:46:23;24.58;;;11.35;;
18544;SDS011;9402;51.460;7.276;2023-04-25T01:48:25;23.77;;;10.73;;
18544;SDS011;9402;51.460;7.276;2023-04-25T01:50:28;22.20;;;10.70;;
18544;SDS011;9402;51.460;7.276;2023-04-25T01:52:30;21.08;;;9.63;;
18544;SDS011;9402;51.460;7.276;2023-04-25T01:54:34;26.15;;;10.75;;
18544;SDS011;9402;51.460;7.276;2023-04-25T01:56:37;22.08;;;10.82;;
18544;SDS011;9402;51.460;7.276;2023-04-25T01:58:39;31.10;;;10.70;;
18544;SDS011;9402;51.460;7.276;2023-04-25T02:00:41;25.52;;;10.27;;
18544;SDS011;9402;51.460;7.276;2023-04-25T02:02:44;23.92;;;9.60;;
18544;SDS011;9402;51.460;7.276;2023-04-25T02:04:46;21.23;;;10.00;;
18544;SDS011;9402;51.460;7.276;2023-04-25T02:06:49;29.08;;;11.55;;
18544;SDS011;9402;51.460;7.276;2023-04-25T02:08:51;24.23;;;10.82;;
18544;SDS011;9402;51.460;7.276;2023-04-25T02:10:55;24.05;;;10.60;;
18544;SDS011;9402;51.460;7.276;2023-04-25T02:12:57;27.27;;;11.68;;
18544;SDS011;9402;51.460;7.276;2023-04-25T02:14:59;33.58;;;12.95;;
18544;SDS011;9402;51.460;7.276;2023-04-25T02:17:02;29.58;;;12.55;;
18544;SDS011;9402;51.460;7.276;2023-04-25T02:19:05;26.92;;;11.77;;
18544;SDS011;9402;51.460;7.276;2023-04-25T02:21:08;29.10;;;12.18;;
18544;SDS011;9402;51.460;7.276;2023-04-25T02:23:10;30.48;;;11.02;;
18544;SDS011;9402;51.460;7.276;2023-04-25T02:25:12;29.75;;;12.10;;
18544;SDS011;9402;51.460;7.276;2023-04-25T02:27:17;28.95;;;11.30;;
18544;SDS011;9402;51.460;7.276;2023-04-25T02:29:19;24.45;;;11.73;;
18544;SDS011;9402;51.460;7.276;2023-04-25T02:31:21;30.90;;;11.85;;
18544;SDS011;9402;51.460;7.276;2023-04-25T02:33:24;27.10;;;11.85;;
18544;SDS011;9402;51.460;7.276;2023-04-25T02:35:26;29.05;;;9.57;;
18544;SDS011;9402;51.460;7.276;2023-04-25T02:37:29;23.83;;;10.40;;
18544;SDS011;9402;51.460;7.276;2023-04-25T02:39:31;21.85;;;10.52;;
18544;SDS011;9402;51.460;7.276;2023-04-25T02:41:33;22.92;;;8.90;;
18544;SDS011;9402;51.460;7.276;2023-04-25T02:43:37;30.08;;;10.15;;
18544;SDS011;9402;51.460;7.276;2023-04-25T02:45:39;30.70;;;9.20;;
18544;SDS011;9402;51.460;7.276;2023-04-25T02:47:42;20.45;;;9.73;;
18544;SDS011;9402;51.460;7.276;2023-04-25T02:49:45;24.80;;;10.80;;
18544;SDS011;9402;51.460;7.276;2023-04-25T02:51:47;26.45;;;9.90;;
18544;SDS011;9402;51.460;7.276;2023-04-25T02:53:50;30.65;;;10.40;;
18544;SDS011;9402;51.460;7.276;2023-04-25T02:55:52;24.77;;;9.93;;
18544;SDS011;9402;51.460;7.276;2023-04-25T02:57:54;25.15;;;9.82;;
18544;SDS011;9402;51.460;7.276;2023-04-25T02:59:58;23.17;;;9.75;;
18544;SDS011;9402;51.460;7.276;2023-04-25T03:02:01;29.27;;;9.68;;
18544;SDS011;9402;51.460;7.276;2023-04-25T03:04:03;28.83;;;9.75;;
18544;SDS011;9402;51.460;7.276;2023-04-25T03:06:06;21.95;;;8.60;;
18544;SDS011;9402;51.460;7.276;2023-04-25T03:08:08;23.90;;;9.10;;
18544;SDS011;9402;51.460;7.276;2023-04-25T03:10:11;32.10;;;8.43;;
18544;SDS011;9402;51.460;7.276;2023-04-25T03:12:13;23.60;;;8.60;;
18544;SDS011;9402;51.460;7.276;2023-04-25T03:14:15;20.60;;;8.15;;
18544;SDS011;9402;51.460;7.276;2023-04-25T03:16:19;29.50;;;8.27;;
18544;SDS011;9402;51.460;7.276;2023-04-25T03:18:22;20.98;;;7.47;;
18544;SDS011;9402;51.460;7.276;2023-04-25T03:20:24;20.10;;;7.63;;
18544;SDS011;9402;51.460;7.276;2023-04-25T03:22:27;25.00;;;8.10;;
18544;SDS011;9402;51.460;7.276;2023-04-25T03:24:29;33.13;;;8.13;;
18544;SDS011;9402;51.460;7.276;2023-04-25T03:26:31;24.40;;;7.57;;
18544;SDS011;9402;51.460;7.276;2023-04-25T03:28:34;22.52;;;7.90;;
18544;SDS011;9402;51.460;7.276;2023-04-25T03:30:36;28.75;;;8.38;;
18544;SDS011;9402;51.460;7.276;2023-04-25T03:32:40;26.80;;;8.25;;
18544;SDS011;9402;51.460;7.276;2023-04-25T03:34:42;29.85;;;8.38;;
18544;SDS011;9402;51.460;7.276;2023-04-25T03:36:44;25.83;;;8.32;;
18544;SDS011;9402;51.460;7.276;2023-04-25T03:38:47;21.70;;;7.72;;
18544;SDS011;9402;51.460;7.276;2023-04-25T03:40:50;24.85;;;9.00;;
18544;SDS011;9402;51.460;7.276;2023-04-25T03:42:53;26.25;;;8.75;;
18544;SDS011;9402;51.460;7.276;2023-04-25T03:44:55;28.45;;;9.35;;
18544;SDS011;9402;51.460;7.276;2023-04-25T03:46:57;28.42;;;8.57;;
18544;SDS011;9402;51.460;7.276;2023-04-25T03:49:01;24.67;;;8.63;;
18544;SDS011;9402;51.460;7.276;2023-04-25T03:51:03;23.98;;;8.55;;
18544;SDS011;9402;51.460;7.276;2023-04-25T03:53:06;28.67;;;8.88;;
18544;SDS011;9402;51.460;7.276;2023-04-25T03:55:08;30.83;;;9.15;;
18544;SDS011;9402;51.460;7.276;2023-04-25T03:57:11;23.63;;;7.55;;
18544;SDS011;9402;51.460;7.276;2023-04-25T03:59:13;22.80;;;8.98;;
18544;SDS011;9402;51.460;7.276;2023-04-25T04:01:15;24.38;;;8.88;;
18544;SDS011;9402;51.460;7.276;2023-04-25T04:03:18;28.00;;;9.18;;
18544;SDS011;9402;51.460;7.276;2023-04-25T04:05:21;25.73;;;11.13;;
18544;SDS011;9402;51.460;7.276;2023-04-25T04:07:24;29.10;;;8.63;;
18544;SDS011;9402;51.460;7.276;2023-04-25T04:09:26;26.85;;;9.82;;
18544;SDS011;9402;51.460;7.276;2023-04-25T04:11:28;25.65;;;9.30;;
18544;SDS011;9402;51.460;7.276;2023-04-25T04:13:32;33.03;;;10.43;;
18544;SDS011;9402;51.460;7.276;2023-04-25T04:15:34;30.08;;;11.60;;
18544;SDS011;9402;51.460;7.276;2023-04-25T04:17:37;23.10;;;5.45;;
18544;SDS011;9402;51.460;7.276;2023-04-25T04:19:39;20.42;;;5.22;;
18544;SDS011;9402;51.460;7.276;2023-04-25T04:21:43;12.18;;;4.03;;
18544;SDS011;9402;51.460;7.276;2023-04-25T04:23:45;16.52;;;3.50;;
18544;SDS011;9402;51.460;7.276;2023-04-25T04:25:48;14.00;;;3.53;;
18544;SDS011;9402;51.460;7.276;2023-04-25T04:27:50;10.98;;;2.75;;
18544;SDS011;9402;51.460;7.276;2023-04-25T04:29:54;14.43;;;3.53;;
18544;SDS011;9402;51.460;7.276;2023-04-25T04:31:57;15.30;;;3.63;;
18544;SDS011;9402;51.460;7.276;2023-04-25T04:34:01;15.55;;;3.33;;
18544;SDS011;9402;51.460;7.276;2023-04-25T04:36:03;17.23;;;2.80;;
18544;SDS011;9402;51.460;7.276;2023-04-25T04:38:09;19.85;;;3.60;;
18544;SDS011;9402;51.460;7.276;2023-04-25T04:40:11;15.02;;;3.30;;
18544;SDS011;9402;51.460;7.276;2023-04-25T04:42:15;18.85;;;3.85;;
18544;SDS011;9402;51.460;7.276;2023-04-25T04:44:17;14.68;;;3.60;;
18544;SDS011;9402;51.460;7.276;2023-04-25T04:46:20;20.42;;;3.20;;
18544;SDS011;9402;51.460;7.276;2023-04-25T04:48:24;27.20;;;3.90;;
18544;SDS011;9402;51.460;7.276;2023-04-25T04:50:26;14.82;;;2.67;;
18544;SDS011;9402;51.460;7.276;2023-04-25T04:52:29;20.33;;;3.42;;
18544;SDS011;9402;51.460;7.276;2023-04-25T04:54:32;23.48;;;3.25;;
18544;SDS011;9402;51.460;7.276;2023-04-25T04:56:35;16.77;;;3.17;;
18544;SDS011;9402;51.460;7.276;2023-04-25T04:58:37;19.20;;;3.72;;
18544;SDS011;9402;51.460;7.276;2023-04-25T05:00:40;15.73;;;4.57;;
18544;SDS011;9402;51.460;7.276;2023-04-25T05:02:42;15.63;;;3.67;;
18544;SDS011;9402;51.460;7.276;2023-04-25T05:04:44;15.77;;;4.38;;
18544;SDS011;9402;51.460;7.276;2023-04-25T05:06:47;13.55;;;4.20;;
18544;SDS011;9402;51.460;7.276;2023-04-25T05:08:49;24.05;;;5.57;;
18544;SDS011;9402;51.460;7.276;2023-04-25T05:10:54;20.05;;;4.80;;
18544;SDS011;9402;51.460;7.276;2023-04-25T05:12:56;16.02;;;5.40;;
18544;SDS011;9402;51.460;7.276;2023-04-25T05:14:58;12.85;;;4.32;;
18544;SDS011;9402;51.460;7.276;2023-04-25T05:17:01;20.25;;;4.47;;
18544;SDS011;9402;51.460;7.276;2023-04-25T05:19:04;16.83;;;5.20;;
18544;SDS011;9402;51.460;7.276;2023-04-25T05:21:07;17.88;;;5.10;;
18544;SDS011;9402;51.460;7.276;2023-04-25T05:23:09;20.33;;;5.28;;
18544;SDS011;9402;51.460;7.276;2023-04-25T05:25:11;22.80;;;4.75;;
18544;SDS011;9402;51.460;7.276;2023-04-25T05:27:17;19.75;;;5.43;;
18544;SDS011;9402;51.460;7.276;2023-04-25T05:29:19;15.32;;;5.15;;
18544;SDS011;9402;51.460;7.276;2023-04-25T05:31:21;24.80;;;5.55;;
18544;SDS011;9402;51.460;7.276;2023-04-25T05:33:24;21.58;;;5.70;;
18544;SDS011;9402;51.460;7.276;2023-04-25T05:35:26;21.23;;;5.78;;
18544;SDS011;9402;51.460;7.276;2023-04-25T05:37:28;12.13;;;3.97;;
18544;SDS011;9402;51.460;7.276;2023-04-25T05:39:32;16.27;;;5.07;;
18544;SDS011;9402;51.460;7.276;2023-04-25T05:41:35;24.63;;;6.20;;
18544;SDS011;9402;51.460;7.276;2023-04-25T05:43:38;21.75;;;5.50;;
18544;SDS011;9402;51.460;7.276;2023-04-25T05:45:45;26.98;;;5.72;;
18544;SDS011;9402;51.460;7.276;2023-04-25T05:47:47;17.98;;;5.35;;
18544;SDS011;9402;51.460;7.276;2023-04-25T05:49:49;20.77;;;5.38;;
18544;SDS011;9402;51.460;7.276;2023-04-25T05:51:52;16.73;;;5.82;;
18544;SDS011;9402;51.460;7.276;2023-04-25T05:53:54;26.75;;;7.80;;
18544;SDS011;9402;51.460;7.276;2023-04-25T05:55:57;23.55;;;7.65;;
18544;SDS011;9402;51.460;7.276;2023-04-25T05:57:59;24.55;;;8.05;;
18544;SDS011;9402;51.460;7.276;2023-04-25T06:00:03;35.17;;;8.50;;
18544;SDS011;9402;51.460;7.276;2023-04-25T06:02:09;27.95;;;7.65;;
18544;SDS011;9402;51.460;7.276;2023-04-25T06:04:11;22.85;;;7.03;;
18544;SDS011;9402;51.460;7.276;2023-04-25T06:06:13;31.70;;;9.20;;
18544;SDS011;9402;51.460;7.276;2023-04-25T06:08:16;29.30;;;8.60;;
18544;SDS011;9402;51.460;7.276;2023-04-25T06:10:19;27.10;;;8.65;;
18544;SDS011;9402;51.460;7.276;2023-04-25T06:12:21;24.70;;;8.00;;
18544;SDS011;9402;51.460;7.276;2023-04-25T06:14:23;34.15;;;8.50;;
18544;SDS011;9402;51.460;7.276;2023-04-25T06:16:27;27.48;;;8.20;;
18544;SDS011;9402;51.460;7.276;2023-04-25T06:18:29;24.85;;;8.90;;
18544;SDS011;9402;51.460;7.276;2023-04-25T06:20:32;30.10;;;9.70;;
18544;SDS011;9402;51.460;7.276;2023-04-25T06:22:34;23.03;;;8.80;;
18544;SDS011;9402;51.460;7.276;2023-04-25T06:24:36;23.70;;;8.47;;
18544;SDS011;9402;51.460;7.276;2023-04-25T06:26:39;26.03;;;9.00;;
18544;SDS011;9402;51.460;7.276;2023-04-25T06:28:41;31.53;;;8.50;;
18544;SDS011;9402;51.460;7.276;2023-04-25T06:30:44;26.53;;;8.47;;
18544;SDS011;9402;51.460;7.276;2023-04-25T06:32:47;20.80;;;7.70;;
18544;SDS011;9402;51.460;7.276;2023-04-25T06:34:50;32.10;;;9.10;;
18544;SDS011;9402;51.460;7.276;2023-04-25T06:36:52;23.43;;;9.33;;
18544;SDS011;9402;51.460;7.276;2023-04-25T06:38:54;28.17;;;8.70;;
18544;SDS011;9402;51.460;7.276;2023-04-25T06:40:57;23.40;;;8.73;;
18544;SDS011;9402;51.460;7.276;2023-04-25T06:42:59;27.77;;;8.03;;
18544;SDS011;9402;51.460;7.276;2023-04-25T06:45:02;27.23;;;8.53;;
18544;SDS011;9402;51.460;7.276;2023-04-25T06:47:05;24.83;;;7.43;;
18544;SDS011;9402;51.460;7.276;2023-04-25T06:49:08;25.13;;;8.13;;
18544;SDS011;9402;51.460;7.276;2023-04-25T06:51:11;30.57;;;8.10;;
18544;SDS011;9402;51.460;7.276;2023-04-25T06:53:14;24.10;;;6.50;;
18544;SDS011;9402;51.460;7.276;2023-04-25T06:55:16;28.90;;;6.70;;
18544;SDS011;9402;51.460;7.276;2023-04-25T06:57:19;19.23;;;5.40;;
18544;SDS011;9402;51.460;7.276;2023-04-25T06:59:21;29.30;;;6.70;;
18544;SDS011;9402;51.460;7.276;2023-04-25T07:01:24;29.43;;;6.60;;
18544;SDS011;9402;51.460;7.276;2023-04-25T07:03:26;25.90;;;10.80;;
18544;SDS011;9402;51.460;7.276;2023-04-25T07:05:30;32.20;;;9.30;;
18544;SDS011;9402;51.460;7.276;2023-04-25T07:07:32;22.87;;;5.77;;
18544;SDS011;9402;51.460;7.276;2023-04-25T07:09:34;27.57;;;6.00;;
18544;SDS011;9402;51.460;7.276;2023-04-25T07:11:37;27.73;;;10.33;;
18544;SDS011;9402;51.460;7.276;2023-04-25T07:13:39;24.97;;;9.90;;
18544;SDS011;9402;51.460;7.276;2023-04-25T07:15:42;28.53;;;6.53;;
18544;SDS011;9402;51.460;7.276;2023-04-25T07:17:45;33.90;;;9.70;;
18544;SDS011;9402;51.460;7.276;2023-04-25T07:19:48;15.93;;;6.30;;
18544;SDS011;9402;51.460;7.276;2023-04-25T07:21:51;20.60;;;6.20;;
18544;SDS011;9402;51.460;7.276;2023-04-25T07:23:54;37.70;;;10.27;;
18544;SDS011;9402;51.460;7.276;2023-04-25T07:25:56;26.10;;;10.00;;
18544;SDS011;9402;51.460;7.276;2023-04-25T07:27:58;23.23;;;6.67;;
18544;SDS011;9402;51.460;7.276;2023-04-25T07:30:01;31.37;;;6.57;;
18544;SDS011;9402;51.460;7.276;2023-04-25T07:32:04;33.00;;;11.00;;
18544;SDS011;9402;51.460;7.276;2023-04-25T07:34:07;34.20;;;10.53;;
18544;SDS011;9402;51.460;7.276;2023-04-25T07:36:10;21.00;;;10.33;;
18544;SDS011;9402;51.460;7.276;2023-04-25T07:38:14;26.40;;;10.97;;
18544;SDS011;9402;51.460;7.276;2023-04-25T07:40:16;30.93;;;12.63;;
18544;SDS011;9402;51.460;7.276;2023-04-25T07:42:18;23.90;;;6.60;;
18544;SDS011;9402;51.460;7.276;2023-04-25T07:44:21;18.90;;;7.70;;
18544;SDS011;9402;51.460;7.276;2023-04-25T07:46:23;23.57;;;5.70;;
18544;SDS011;9402;51.460;7.276;2023-04-25T07:48:26;30.27;;;16.30;;
18544;SDS011;9402;51.460;7.276;2023-04-25T07:50:28;34.37;;;5.60;;
18544;SDS011;9402;51.460;7.276;2023-04-25T07:52:30;25.93;;;6.07;;
18544;SDS011;9402;51.460;7.276;2023-04-25T07:54:34;22.60;;;6.10;;
18544;SDS011;9402;51.460;7.276;2023-04-25T07:56:36;17.07;;;8.60;;
18544;SDS011;9402;51.460;7.276;2023-04-25T07:58:39;24.23;;;9.03;;
18544;SDS011;9402;51.460;7.276;2023-04-25T08:00:41;28.13;;;6.90;;
18544;SDS011;9402;51.460;7.276;2023-04-25T08:02:43;24.10;;;6.03;;
18544;SDS011;9402;51.460;7.276;2023-04-25T08:04:46;23.80;;;4.70;;
18544;SDS011;9402;51.460;7.276;2023-04-25T08:06:49;24.13;;;4.97;;
18544;SDS011;9402;51.460;7.276;2023-04-25T08:08:52;18.13;;;4.63;;
18544;SDS011;9402;51.460;7.276;2023-04-25T08:10:56;18.30;;;5.80;;
18544;SDS011;9402;51.460;7.276;2023-04-25T08:12:59;21.93;;;3.70;;
18544;SDS011;9402;51.460;7.276;2023-04-25T08:15:01;17.47;;;3.60;;
18544;SDS011;9402;51.460;7.276;2023-04-25T08:17:04;21.20;;;3.83;;
18544;SDS011;9402;51.460;7.276;2023-04-25T08:19:07;23.97;;;4.00;;
18544;SDS011;9402;51.460;7.276;2023-04-25T08:21:09;24.30;;;5.73;;
18544;SDS011;9402;51.460;7.276;2023-04-25T08:23:12;13.70;;;2.90;;
18544;SDS011;9402;51.460;7.276;2023-04-25T08:25:14;20.23;;;3.30;;
18544;SDS011;9402;51.460;7.276;2023-04-25T08:27:18;21.07;;;3.70;;
18544;SDS011;9402;51.460;7.276;2023-04-25T08:29:21;21.00;;;2.97;;
18544;SDS011;9402;51.460;7.276;2023-04-25T08:31:25;20.53;;;3.07;;
18544;SDS011;9402;51.460;7.276;2023-04-25T08:33:28;17.80;;;3.10;;
18544;SDS011;9402;51.460;7.276;2023-04-25T08:35:31;14.93;;;2.47;;
18544;SDS011;9402;51.460;7.276;2023-04-25T08:37:34;16.73;;;2.50;;
18544;SDS011;9402;51.460;7.276;2023-04-25T08:39:37;18.40;;;2.90;;
18544;SDS011;9402;51.460;7.276;2023-04-25T08:41:40;13.67;;;2.90;;
18544;SDS011;9402;51.460;7.276;2023-04-25T08:43:43;16.07;;;2.90;;
18544;SDS011;9402;51.460;7.276;2023-04-25T08:45:47;11.13;;;2.37;;
18544;SDS011;9402;51.460;7.276;2023-04-25T08:47:49;22.10;;;10.80;;
18544;SDS011;9402;51.460;7.276;2023-04-25T08:49:53;15.30;;;2.30;;
18544;SDS011;9402;51.460;7.276;2023-04-25T08:51:56;18.37;;;2.93;;
18544;SDS011;9402;51.460;7.276;2023-04-25T08:54:04;14.80;;;2.67;;
18544;SDS011;9402;51.460;7.276;2023-04-25T08:56:10;24.60;;;3.00;;
18544;SDS011;9402;51.460;7.276;2023-04-25T08:58:14;16.20;;;2.50;;
18544;SDS011;9402;51.460;7.276;2023-04-25T09:00:18;13.63;;;2.47;;
18544;SDS011;9402;51.460;7.276;2023-04-25T09:02:21;13.43;;;1.80;;
18544;SDS011;9402;51.460;7.276;2023-04-25T09:04:23;19.70;;;2.83;;
18544;SDS011;9402;51.460;7.276;2023-04-25T09:06:27;17.23;;;2.07;;
18544;SDS011;9402;51.460;7.276;2023-04-25T09:08:30;13.73;;;2.40;;
18544;SDS011;9402;51.460;7.276;2023-04-25T09:10:33;16.97;;;2.27;;
18544;SDS011;9402;51.460;7.276;2023-04-25T09:12:35;14.80;;;2.60;;
18544;SDS011;9402;51.460;7.276;2023-04-25T09:14:38;12.50;;;2.50;;
18544;SDS011;9402;51.460;7.276;2023-04-25T09:19:04;14.90;;;1.97;;
18544;SDS011;9402;51.460;7.276;2023-04-25T09:21:07;15.77;;;2.67;;
18544;SDS011;9402;51.460;7.276;2023-04-25T09:23:10;12.87;;;2.47;;
18544;SDS011;9402;51.460;7.276;2023-04-25T09:25:13;23.27;;;2.60;;
18544;SDS011;9402;51.460;7.276;2023-04-25T09:27:17;13.53;;;2.73;;
18544;SDS011;9402;51.460;7.276;2023-04-25T09:29:27;12.17;;;2.10;;
18544;SDS011;9402;51.460;7.276;2023-04-25T09:31:31;20.80;;;2.87;;
18544;SDS011;9402;51.460;7.276;2023-04-25T09:33:36;20.23;;;3.10;;
18544;SDS011;9402;51.460;7.276;2023-04-25T09:35:39;9.83;;;2.37;;
18544;SDS011;9402;51.460;7.276;2023-04-25T09:37:43;11.97;;;2.40;;
18544;SDS011;9402;51.460;7.276;2023-04-25T09:39:45;17.17;;;2.57;;
18544;SDS011;9402;51.460;7.276;2023-04-25T09:41:48;16.23;;;3.03;;
18544;SDS011;9402;51.460;7.276;2023-04-25T09:43:56;13.80;;;2.60;;
18544;SDS011;9402;51.460;7.276;2023-04-25T09:45:59;19.30;;;4.97;;
18544;SDS011;9402;51.460;7.276;2023-04-25T09:48:02;13.47;;;2.40;;
18544;SDS011;9402;51.460;7.276;2023-04-25T09:50:13;15.60;;;2.97;;
18544;SDS011;9402;51.460;7.276;2023-04-25T09:52:17;21.67;;;3.53;;
18544;SDS011;9402;51.460;7.276;2023-04-25T09:54:20;14.70;;;2.60;;
18544;SDS011;9402;51.460;7.276;2023-04-25T09:56:22;13.53;;;3.03;;
18544;SDS011;9402;51.460;7.276;2023-04-25T09:58:25;16.97;;;2.20;;
18544;SDS011;9402;51.460;7.276;2023-04-25T10:00:30;15.03;;;2.70;;
18544;SDS011;9402;51.460;7.276;2023-04-25T10:02:33;10.67;;;2.30;;
18544;SDS011;9402;51.460;7.276;2023-04-25T10:04:36;10.53;;;1.63;;
18544;SDS011;9402;51.460;7.276;2023-04-25T10:06:41;11.67;;;1.80;;
18544;SDS011;9402;51.460;7.276;2023-04-25T10:08:44;12.37;;;2.20;;
18544;SDS011;9402;51.460;7.276;2023-04-25T10:10:49;10.23;;;1.30;;
18544;SDS011;9402;51.460;7.276;2023-04-25T10:12:51;11.70;;;1.97;;
18544;SDS011;9402;51.460;7.276;2023-04-25T10:14:54;11.63;;;1.90;;
18544;SDS011;9402;51.460;7.276;2023-04-25T10:16:57;10.10;;;1.80;;
18544;SDS011;9402;51.460;7.276;2023-04-25T10:18:59;15.40;;;2.13;;
18544;SDS011;9402;51.460;7.276;2023-04-25T10:21:03;12.57;;;1.97;;
18544;SDS011;9402;51.460;7.276;2023-04-25T10:23:09;13.83;;;1.90;;
18544;SDS011;9402;51.460;7.276;2023-04-25T10:25:14;8.73;;;1.70;;
18544;SDS011;9402;51.460;7.276;2023-04-25T10:27:17;13.10;;;1.90;;
18544;SDS011;9402;51.460;7.276;2023-04-25T10:29:23;15.83;;;2.20;;
18544;SDS011;9402;51.460;7.276;2023-04-25T10:31:26;12.10;;;2.30;;
18544;SDS011;9402;51.460;7.276;2023-04-25T10:33:33;10.13;;;1.67;;
18544;SDS011;9402;51.460;7.276;2023-04-25T10:35:37;18.90;;;2.20;;
18544;SDS011;9402;51.460;7.276;2023-04-25T10:39:59;16.33;;;2.10;;
18544;SDS011;9402;51.460;7.276;2023-04-25T10:42:10;16.47;;;2.43;;
18544;SDS011;9402;51.460;7.276;2023-04-25T10:44:13;14.33;;;2.47;;
18544;SDS011;9402;51.460;7.276;2023-04-25T10:46:17;9.47;;;1.90;;
18544;SDS011;9402;51.460;7.276;2023-04-25T10:48:24;9.77;;;1.93;;
18544;SDS011;9402;51.460;7.276;2023-04-25T10:50:36;11.90;;;1.83;;
18544;SDS011;9402;51.460;7.276;2023-04-25T10:52:39;13.20;;;1.90;;
18544;SDS011;9402;51.460;7.276;2023-04-25T10:54:42;9.93;;;1.70;;
18544;SDS011;9402;51.460;7.276;2023-04-25T10:56:49;10.77;;;1.60;;
18544;SDS011;9402;51.460;7.276;2023-04-25T10:59:02;8.30;;;1.80;;
18544;SDS011;9402;51.460;7.276;2023-04-25T11:01:06;12.90;;;2.97;;
18544;SDS011;9402;51.460;7.276;2023-04-25T11:03:09;14.63;;;2.20;;
18544;SDS011;9402;51.460;7.276;2023-04-25T11:05:14;11.10;;;2.17;;
18544;SDS011;9402;51.460;7.276;2023-04-25T11:07:25;10.33;;;1.80;;
18544;SDS011;9402;51.460;7.276;2023-04-25T11:09:32;11.60;;;2.20;;
18544;SDS011;9402;51.460;7.276;2023-04-25T11:11:36;12.13;;;2.17;;
18544;SDS011;9402;51.460;7.276;2023-04-25T11:13:39;13.90;;;1.77;;
18544;SDS011;9402;51.460;7.276;2023-04-25T11:15:42;13.87;;;2.20;;
18544;SDS011;9402;51.460;7.276;2023-04-25T11:17:44;19.47;;;2.43;;
18544;SDS011;9402;51.460;7.276;2023-04-25T11:19:48;9.40;;;1.87;;
18544;SDS011;9402;51.460;7.276;2023-04-25T11:21:50;11.37;;;2.33;;
18544;SDS011;9402;51.460;7.276;2023-04-25T11:23:56;17.73;;;3.17;;
18544;SDS011;9402;51.460;7.276;2023-04-25T11:25:58;20.23;;;5.17;;
18544;SDS011;9402;51.460;7.276;2023-04-25T11:28:01;15.33;;;4.13;;
18544;SDS011;9402;51.460;7.276;2023-04-25T11:30:12;15.33;;;2.67;;
18544;SDS011;9402;51.460;7.276;2023-04-25T11:32:17;9.27;;;2.20;;
18544;SDS011;9402;51.460;7.276;2023-04-25T11:34:20;10.47;;;2.07;;
18544;SDS011;9402;51.460;7.276;2023-04-25T11:36:22;11.57;;;2.23;;
18544;SDS011;9402;51.460;7.276;2023-04-25T11:38:26;9.70;;;1.53;;
18544;SDS011;9402;51.460;7.276;2023-04-25T11:40:28;8.77;;;1.30;;
18544;SDS011;9402;51.460;7.276;2023-04-25T11:42:32;13.10;;;1.90;;
18544;SDS011;9402;51.460;7.276;2023-04-25T11:44:35;11.87;;;1.90;;
18544;SDS011;9402;51.460;7.276;2023-04-25T11:46:39;7.77;;;1.70;;
18544;SDS011;9402;51.460;7.276;2023-04-25T11:48:42;8.70;;;2.30;;
18544;SDS011;9402;51.460;7.276;2023-04-25T11:50:45;18.70;;;2.17;;
18544;SDS011;9402;51.460;7.276;2023-04-25T11:52:47;8.63;;;1.80;;
18544;SDS011;9402;51.460;7.276;2023-04-25T11:54:50;13.40;;;2.10;;
18544;SDS011;9402;51.460;7.276;2023-04-25T11:56:52;12.60;;;1.70;;
18544;SDS011;9402;51.460;7.276;2023-04-25T11:58:55;12.00;;;1.70;;
18544;SDS011;9402;51.460;7.276;2023-04-25T12:00:58;10.20;;;1.90;;
18544;SDS011;9402;51.460;7.276;2023-04-25T12:03:04;8.53;;;1.50;;
18544;SDS011;9402;51.460;7.276;2023-04-25T12:05:06;12.13;;;1.80;;
18544;SDS011;9402;51.460;7.276;2023-04-25T12:07:09;8.60;;;1.67;;
18544;SDS011;9402;51.460;7.276;2023-04-25T12:09:12;10.30;;;1.70;;
18544;SDS011;9402;51.460;7.276;2023-04-25T12:11:20;6.60;;;1.43;;
18544;SDS011;9402;51.460;7.276;2023-04-25T12:13:23;10.97;;;1.67;;
18544;SDS011;9402;51.460;7.276;2023-04-25T12:15:26;8.47;;;1.60;;
18544;SDS011;9402;51.460;7.276;2023-04-25T12:17:29;10.17;;;1.80;;
18544;SDS011;9402;51.460;7.276;2023-04-25T12:19:33;9.63;;;1.77;;
18544;SDS011;9402;51.460;7.276;2023-04-25T12:21:36;10.27;;;1.77;;
18544;SDS011;9402;51.460;7.276;2023-04-25T12:23:38;9.40;;;2.00;;
18544;SDS011;9402;51.460;7.276;2023-04-25T12:25:42;12.87;;;1.87;;
18544;SDS011;9402;51.460;7.276;2023-04-25T12:27:45;10.83;;;1.50;;